This is the latest recevied weather packets stored in our database for station/object YU7IBS-1. If no packets are shown the sender has not sent any weather packets the latest 10 day(s).
| Time | Temp. | Humidity | Pressure | Rain* | Wind** | Luminosity | Snow |
|---|---|---|---|---|---|---|---|
| 1787388856 | 28.33° C | 48% | 997.9 hPa | 0 mm | - | - | - |
| 1787388256 | 27.78° C | 50% | 997.8 hPa | 0 mm | - | - | - |
| 1787387656 | 28.33° C | 49% | 997.7 hPa | 0 mm | - | - | - |
| 1787387056 | 28.33° C | 48% | 997.7 hPa | 0 mm | - | - | - |
| 1787386457 | 27.78° C | 48% | 997.7 hPa | 0 mm | - | - | - |
| 1787385856 | 27.78° C | 49% | 997.7 hPa | 0 mm | - | - | - |
| 1787385256 | 27.22° C | 51% | 997.7 hPa | 0 mm | - | - | - |
| 1787384656 | 26.67° C | 50% | 997.7 hPa | 0 mm | - | - | - |
| 1787384057 | 26.67° C | 50% | 997.7 hPa | 0 mm | - | - | - |
| 1787383456 | 26.67° C | 52% | 997.6 hPa | 0 mm | - | - | - |
| 1787382857 | 26.11° C | 55% | 997.6 hPa | 0 mm | - | - | - |
| 1787382256 | 25.56° C | 55% | 997.3 hPa | 0 mm | - | - | - |
| 1787381657 | 26.11° C | 56% | 997 hPa | 0 mm | - | - | - |
| 1787381056 | 25.56° C | 58% | 997 hPa | 0 mm | - | - | - |
| 1787380456 | 25.56° C | 61% | 997 hPa | 0 mm | - | - | - |
| 1787379857 | 25.56° C | 62% | 997 hPa | 0 mm | - | - | - |
| 1787379256 | 25° C | 63% | 997 hPa | 0 mm | - | - | - |
| 1787378657 | 25° C | 64% | 996.9 hPa | 0 mm | - | - | - |
| 1787378056 | 25° C | 64% | 997 hPa | 0 mm | - | - | - |
| 1787377456 | 25° C | 64% | 996.9 hPa | 0 mm | - | - | - |
| 1787376858 | 25° C | 64% | 996.7 hPa | 0 mm | - | - | - |
| 1787376256 | 25.56° C | 63% | 996.7 hPa | 0 mm | - | - | - |
| 1787375656 | 25.56° C | 62% | 996.5 hPa | 0 mm | - | - | - |
| 1787375056 | 25.56° C | 64% | 996.5 hPa | 0 mm | - | - | - |
| 1787374456 | 24.44° C | 69% | 996.2 hPa | 0 mm | - | - | - |
* Rain latest hour (hover to see other rain measurements)
** Current wind speed in m/s (hover to see current wind gust speed)